Brookline Village, Massachusetts
Current Conditions -  °F | °C
As of 8:54 PM on Friday 31 Oct 2014 (Local Time) from KBOS Reporting Station
Overcast Overcast  
Wind Chill: 50°   Ceiling: 6500
Heat Index: 50°   Visibility: 10mi
Dew Point: 36°   Wind: 15mph
Humidity: 59%   Direction: 60°ENE
Pressure: 30"   Gusts: NA
Location:  42.33°N, 71.12°W
Report Text: KBOS 010054Z 06013KT 10SM FEW032 BKN065 OVC250 10/02 A3000 RMK AO2 SLP159 T01000022
Loading
Personal Weather Stations






























Interactive Weather Map
Tropical Storm Tracking
New forecast layout! Learn more

10-Day Weather Forecast

Advertisements
Track Severe Weather on mobile